Time;durP1;ratioP1;P1;durP2;ratioP2;P2;SDS_P1;SDS_P2;PMS_P1;PMS_P2;Temp;Humidity;BMP_temperature;BMP_pressure;BME280_temperature;BME280_humidity;BME280_pressure;Samples;Min_cycle;Max_cycle;Signal;HPM_P1;HPM_P2
2023/05/15 00:18:10;;;;;;;3.65;2.45;;;;;;;21.86;55.33;99599.72;39792211;29;20071;-78
2023/05/15 00:38:11;;;;;;;2.45;2.25;;;;;;;21.88;55.09;99629.38;39801079;29;20426;-79
2023/05/15 00:58:13;;;;;;;3.15;2.33;;;;;;;21.85;55.04;99603.31;39791377;29;20053;-77
2023/05/15 01:18:14;;;;;;;2.08;1.88;;;;;;;21.84;55.41;99577.94;39794989;29;20168;-79
2023/05/15 01:38:26;;;;;;;2.05;1.90;;;;;;;21.81;54.98;99572.94;39770927;29;20091;-79
2023/05/15 01:58:27;;;;;;;2.10;1.90;;;;;;;21.80;54.88;99530.94;39773994;29;20054;-79
2023/05/15 02:18:28;;;;;;;1.80;1.70;;;;;;;21.79;54.82;99551.19;39780416;29;20059;-79
2023/05/15 02:38:36;;;;;;;1.98;1.88;;;;;;;21.77;55.00;99582.13;39782854;29;20419;-79
2023/05/15 02:58:38;;;;;;;2.15;1.77;;;;;;;21.77;55.02;99581.28;39773467;29;20129;-80
2023/05/15 03:18:38;;;;;;;1.65;1.55;;;;;;;21.74;54.81;99558.69;39777434;29;20054;-80
2023/05/15 03:38:39;;;;;;;1.92;1.70;;;;;;;21.74;55.01;99508.63;39787968;29;20065;-80
2023/05/15 03:58:39;;;;;;;2.85;1.60;;;;;;;21.72;54.62;99485.03;39794283;29;20073;-79
2023/05/15 04:18:40;;;;;;;3.03;1.90;;;;;;;21.72;55.44;99490.31;39767707;29;20081;-80
2023/05/15 04:38:41;;;;;;;5.13;1.83;;;;;;;21.83;56.79;99478.75;39793045;29;20054;-82
2023/05/15 04:58:41;;;;;;;6.75;3.83;;;;;;;21.74;53.52;99517.34;39740828;29;20544;-78
2023/05/15 05:18:42;;;;;;;6.43;4.78;;;;;;;21.53;52.26;99549.16;39786686;29;20047;-79
2023/05/15 05:38:42;;;;;;;25.40;5.15;;;;;;;21.62;52.48;99550.13;39760011;29;20069;-76
2023/05/15 05:58:45;;;;;;;9.43;4.05;;;;;;;21.64;53.38;99574.53;39771471;29;20501;-81
2023/05/15 06:18:45;;;;;;;8.43;3.53;;;;;;;21.72;53.62;99582.53;39784252;29;20078;-78
2023/05/15 06:38:45;;;;;;;8.25;3.47;;;;;;;21.79;53.57;99590.72;39783536;29;20965;-78
2023/05/15 06:58:46;;;;;;;7.10;3.40;;;;;;;21.84;53.19;99558.69;39758448;29;20940;-77
2023/05/15 07:18:47;;;;;;;4.75;2.50;;;;;;;21.91;53.31;99580.84;39800243;29;20046;-78
2023/05/15 07:38:48;;;;;;;3.20;2.75;;;;;;;21.94;52.93;99587.63;39946949;29;20057;-78
2023/05/15 07:58:48;;;;;;;6.00;2.95;;;;;;;21.95;52.88;99563.75;39979521;29;21103;-80
2023/05/15 08:18:52;;;;;;;3.70;2.83;;;;;;;22.05;52.46;99601.44;39972191;29;23643;-76
2023/05/15 08:38:52;;;;;;;5.60;3.50;;;;;;;22.10;52.30;99595.75;39968835;29;20034;-77
2023/05/15 08:58:53;;;;;;;5.93;3.88;;;;;;;22.13;52.32;99571.75;39960778;29;20039;-77
2023/05/15 09:18:53;;;;;;;7.38;4.63;;;;;;;21.88;51.03;99616.19;39951572;29;20046;-75
2023/05/15 09:38:58;;;;;;;3.90;3.33;;;;;;;21.94;51.73;99643.81;39955094;29;20046;-78
2023/05/15 09:58:58;;;;;;;3.40;2.92;;;;;;;22.08;52.26;99634.59;39949275;29;20045;-79
2023/05/15 10:19:02;;;;;;;4.20;2.95;;;;;;;22.26;52.16;99632.06;39960787;29;20106;-79
2023/05/15 10:39:05;;;;;;;3.20;2.67;;;;;;;22.36;52.66;99632.03;39940663;29;20053;-79
2023/05/15 10:59:07;;;;;;;3.45;2.97;;;;;;;22.44;52.41;99648.00;39961424;29;20053;-79
2023/05/15 11:19:35;;;;;;;3.47;3.08;;;;;;;22.52;52.56;99642.81;39959805;29;20168;-80
2023/05/15 11:39:38;;;;;;;3.95;3.15;;;;;;;22.57;52.47;99631.84;39931710;29;20049;-79
2023/05/15 11:59:38;;;;;;;5.32;4.68;;;;;;;22.75;53.03;99613.38;39931428;29;20038;-76
2023/05/15 12:19:40;;;;;;;8.30;6.43;;;;;;;22.92;56.06;99621.50;39931079;29;20125;-76
2023/05/15 12:39:50;;;;;;;13.07;6.93;;;;;;;22.93;55.48;99631.91;39911941;29;20438;-73
2023/05/15 12:59:51;;;;;;;7.43;6.22;;;;;;;22.92;54.85;99614.41;39921389;29;20054;-76
2023/05/15 13:19:51;;;;;;;8.93;5.35;;;;;;;22.95;54.50;99615.91;39886134;29;20144;-78
2023/05/15 13:39:51;;;;;;;6.75;5.05;;;;;;;22.98;54.35;99603.22;39889456;29;20041;-77
2023/05/15 13:59:52;;;;;;;9.48;3.22;;;;;;;22.87;52.31;99582.34;39890477;29;20186;-74
2023/05/15 14:19:52;;;;;;;15.25;3.75;;;;;;;22.97;53.38;99611.31;39897843;29;20048;-76
2023/05/15 14:39:53;;;;;;;10.75;3.50;;;;;;;22.93;53.60;99618.69;39877272;29;20043;-78
2023/05/15 14:59:53;;;;;;;11.20;3.20;;;;;;;22.99;54.90;99639.22;39887529;29;20073;-77
2023/05/15 15:19:54;;;;;;;5.40;2.70;;;;;;;23.02;54.73;99638.94;39908643;29;20049;-80
2023/05/15 15:39:54;;;;;;;4.38;2.40;;;;;;;23.08;54.08;99663.91;39923797;29;20118;-75
2023/05/15 15:59:55;;;;;;;5.65;2.35;;;;;;;23.09;54.10;99670.84;39912681;29;20068;-76
2023/05/15 16:19:57;;;;;;;19.80;5.88;;;;;;;23.17;55.24;99664.88;39929192;29;20046;-79
2023/05/15 16:39:58;;;;;;;23.42;8.75;;;;;;;23.29;56.10;99686.59;39971535;29;20454;-80
2023/05/15 17:00:00;;;;;;;16.55;4.78;;;;;;;23.08;52.72;99695.59;39928613;29;20043;-80
2023/05/15 17:20:00;;;;;;;9.75;3.03;;;;;;;22.97;51.37;99707.22;39929481;29;20069;-82
2023/05/15 17:40:01;;;;;;;6.47;3.00;;;;;;;22.98;54.00;99742.34;39938579;29;20046;-79
2023/05/15 18:00:02;;;;;;;9.50;3.00;;;;;;;22.93;55.57;99740.13;39856670;29;20065;-80
2023/05/15 18:20:04;;;;;;;8.60;2.90;;;;;;;22.85;55.41;99732.09;39907300;29;20046;-77
2023/05/15 18:40:05;;;;;;;8.65;2.53;;;;;;;22.81;55.08;99759.78;39909766;29;20042;-78
2023/05/15 19:00:06;;;;;;;5.20;2.78;;;;;;;22.74;54.74;99790.38;39968466;29;22196;-80
2023/05/15 19:20:07;;;;;;;6.65;2.58;;;;;;;22.64;54.78;99801.81;39977894;29;20039;-76
2023/05/15 19:40:08;;;;;;;6.00;2.90;;;;;;;22.62;55.10;99798.47;39995815;29;20050;-78
2023/05/15 20:00:11;;;;;;;4.88;2.80;;;;;;;22.60;55.19;99799.59;39967448;29;20414;-77
2023/05/15 20:20:11;;;;;;;5.20;3.13;;;;;;;22.58;55.37;99807.63;39994788;29;20158;-77
2023/05/15 20:40:14;;;;;;;5.22;2.70;;;;;;;22.54;55.43;99827.34;39989554;29;20073;-77
2023/05/15 21:00:16;;;;;;;4.43;2.78;;;;;;;22.53;55.15;99831.81;39983121;29;20045;-76
2023/05/15 21:20:17;;;;;;;3.38;2.53;;;;;;;22.51;55.20;99828.47;39993487;29;20660;-77
2023/05/15 21:40:17;;;;;;;4.20;2.75;;;;;;;22.50;55.38;99839.19;39977793;29;20050;-78
2023/05/15 22:00:18;;;;;;;3.03;2.72;;;;;;;22.52;56.27;99866.25;39964695;29;20061;-77
2023/05/15 22:20:19;;;;;;;3.13;2.50;;;;;;;22.50;55.89;99890.13;39959405;29;20061;-76
2023/05/15 22:40:19;;;;;;;2.80;2.42;;;;;;;22.45;55.99;99904.69;39968252;29;20038;-78
2023/05/15 23:00:21;;;;;;;3.28;2.80;;;;;;;22.41;55.82;99888.34;39995970;29;20050;-79
2023/05/15 23:20:21;;;;;;;3.08;2.47;;;;;;;22.38;55.65;99854.31;39983165;29;20102;-77
2023/05/15 23:40:21;;;;;;;3.13;2.50;;;;;;;22.34;55.71;99848.47;39998048;29;20774;-79
